createdAt,value
2019-05-17T00:10:09.369Z,9.4
2019-05-17T00:26:47.331Z,9.1
2019-05-17T00:43:26.235Z,9.1
2019-05-17T01:00:03.043Z,9.1
2019-05-17T01:16:40.891Z,9.1
2019-05-17T01:33:18.740Z,9.1
2019-05-17T01:49:57.620Z,9.1
2019-05-17T02:06:36.420Z,9.1
2019-05-17T02:23:11.942Z,8.8
2019-05-17T02:39:58.200Z,8.8
2019-05-17T02:56:26.960Z,8.5
2019-05-17T03:13:04.565Z,8.5
2019-05-17T03:29:42.507Z,8.5
2019-05-17T03:46:22.933Z,8.8
2019-05-17T04:02:56.834Z,8.8
2019-05-17T04:19:34.650Z,9.1
2019-05-17T04:36:13.329Z,9.4
2019-05-17T04:52:53.759Z,9.8
2019-05-17T05:04:29.726Z,10.4
2019-05-17T05:21:09.020Z,10.4
2019-05-17T05:34:28.248Z,9.8
2019-05-17T05:47:47.150Z,10.4
2019-05-17T06:04:26.327Z,10.4
2019-05-17T06:14:26.059Z,11.0
2019-05-17T06:24:25.940Z,11.7
2019-05-17T06:41:09.160Z,11.4
2019-05-17T06:57:45.616Z,11.4
2019-05-17T07:14:25.205Z,11.4
2019-05-17T07:31:04.955Z,11.4
2019-05-17T07:41:04.990Z,12.0
2019-05-17T07:57:45.410Z,12.3
2019-05-17T08:14:30.212Z,12.3
2019-05-17T08:31:06.335Z,12.0
2019-05-17T08:47:46.405Z,11.7
2019-05-17T09:04:26.652Z,12.0
2019-05-17T09:21:06.915Z,12.0
2019-05-17T09:37:49.729Z,12.3
2019-05-17T09:51:10.297Z,13.3
2019-05-17T09:54:41.394Z,13.9
2019-05-17T10:11:12.177Z,13.3
2019-05-17T10:21:10.970Z,12.6
2019-05-17T10:37:51.663Z,12.6
2019-05-17T10:44:43.579Z,13.3
2019-05-17T10:54:40.987Z,13.9
2019-05-17T11:11:20.040Z,13.6
2019-05-17T11:21:15.789Z,13.0
2019-05-17T11:37:56.833Z,13.0
2019-05-17T11:54:39.459Z,13.0
2019-05-17T12:11:19.053Z,13.3
2019-05-17T12:24:40.359Z,13.9
2019-05-17T12:34:41.721Z,14.6
2019-05-17T12:51:24.299Z,14.9
2019-05-17T13:08:06.894Z,14.2
2019-05-17T13:24:49.359Z,14.9
2019-05-17T13:31:30.566Z,15.5
2019-05-17T13:41:32.735Z,16.2
2019-05-17T13:51:35.264Z,16.5
2019-05-17T14:08:19.443Z,16.5
2019-05-17T14:21:42.666Z,15.8
2019-05-17T14:35:05.245Z,15.2
2019-05-17T14:48:27.917Z,15.8
2019-05-17T15:05:11.844Z,15.8
2019-05-17T15:21:55.066Z,15.8
2019-05-17T15:38:38.770Z,15.8
2019-05-17T15:55:22.307Z,15.8
2019-05-17T16:12:05.906Z,15.8
2019-05-17T16:28:49.758Z,16.2
2019-05-17T16:42:12.570Z,15.5
2019-05-17T16:58:55.711Z,15.2
2019-05-17T17:15:38.646Z,15.2
2019-05-17T17:32:21.969Z,14.9
2019-05-17T17:49:04.256Z,14.9
2019-05-17T18:05:46.817Z,14.6
2019-05-17T18:22:29.274Z,14.6
2019-05-17T18:39:11.804Z,14.6
2019-05-17T18:55:54.130Z,14.2
2019-05-17T19:12:36.462Z,14.2
2019-05-17T19:29:18.739Z,14.2
2019-05-17T19:46:00.880Z,13.9
2019-05-17T20:02:42.966Z,13.9
2019-05-17T20:19:24.980Z,13.9
2019-05-17T20:36:06.929Z,13.6
2019-05-17T20:52:48.576Z,13.3
2019-05-17T21:09:30.166Z,13.0
2019-05-17T21:26:11.312Z,12.6
2019-05-17T21:42:52.205Z,12.6
2019-05-17T21:59:32.988Z,12.3
2019-05-17T22:16:19.544Z,12.0
2019-05-17T22:32:53.860Z,11.7
2019-05-17T22:49:34.026Z,11.4
2019-05-17T23:06:14.135Z,11.4
2019-05-17T23:22:53.533Z,11.0
2019-05-17T23:39:33.347Z,10.7
2019-05-17T23:56:12.556Z,10.7
